Time;durP1;ratioP1;P1;durP2;ratioP2;P2;SDS_P1;SDS_P2;PMS_P1;PMS_P2;Temp;Humidity;BMP_temperature;BMP_pressure;BME280_temperature;BME280_humidity;BME280_pressure;Samples;Min_cycle;Max_cycle;Signal;HPM_P1;HPM_P2
2023/02/26 00:01:27;;;;;;;4.00;2.00;;;1.40;99.90;;;;;;5115489;28;20713;-51
2023/02/26 00:03:56;;;;;;;3.65;1.30;;;1.50;99.90;;;;;;5115752;28;20225;-50
2023/02/26 00:06:24;;;;;;;4.05;1.95;;;1.60;99.90;;;;;;5114986;28;20197;-51
2023/02/26 00:08:52;;;;;;;2.88;1.40;;;1.70;99.90;;;;;;5115124;28;20213;-50
2023/02/26 00:11:19;;;;;;;3.50;1.70;;;1.30;99.90;;;;;;5115563;28;20583;-51
2023/02/26 00:13:46;;;;;;;4.60;1.35;;;1.40;99.90;;;;;;5115107;28;20217;-50
2023/02/26 00:16:21;;;;;;;3.20;2.10;;;1.50;99.90;;;;;;5115187;28;20198;-51
2023/02/26 00:18:49;;;;;;;5.80;1.90;;;1.30;99.90;;;;;;5115153;28;20608;-51
2023/02/26 00:21:17;;;;;;;3.92;1.58;;;1.70;99.90;;;;;;5115167;28;20217;-52
2023/02/26 00:23:44;;;;;;;4.28;1.77;;;1.60;99.90;;;;;;5115548;28;20201;-51
2023/02/26 00:26:12;;;;;;;4.05;2.83;;;1.70;99.90;;;;;;5115070;28;20212;-52
2023/02/26 00:28:40;;;;;;;2.85;1.60;;;1.40;99.90;;;;;;5114882;28;20194;-50
2023/02/26 00:31:08;;;;;;;6.13;1.85;;;1.40;99.90;;;;;;5113778;28;20232;-51
2023/02/26 00:33:35;;;;;;;2.22;1.38;;;1.50;99.90;;;;;;5096494;28;20224;-50
2023/02/26 00:36:13;;;;;;;3.95;1.60;;;1.70;99.90;;;;;;5114160;28;20186;-51
2023/02/26 00:38:44;;;;;;;3.72;2.20;;;1.70;99.90;;;;;;5113306;28;20348;-51
2023/02/26 00:41:14;;;;;;;3.85;1.65;;;1.10;99.90;;;;;;5096435;28;20279;-50
2023/02/26 00:43:41;;;;;;;2.97;1.40;;;1.70;99.90;;;;;;5096526;28;20692;-51
2023/02/26 00:46:20;;;;;;;2.75;1.50;;;1.40;99.90;;;;;;5096346;28;20543;-51
2023/02/26 00:48:55;;;;;;;4.28;1.90;;;1.40;99.90;;;;;;5095780;28;20202;-52
2023/02/26 00:51:31;;;;;;;3.97;1.77;;;1.60;99.90;;;;;;5114677;28;20685;-51
2023/02/26 00:54:03;;;;;;;7.18;1.60;;;1.50;99.90;;;;;;5096409;28;20666;-51
2023/02/26 00:56:31;;;;;;;4.05;1.75;;;1.60;99.90;;;;;;5114437;28;20194;-51
2023/02/26 00:58:58;;;;;;;4.25;1.83;;;1.60;99.90;;;;;;5114193;28;20220;-51
2023/02/26 01:01:25;;;;;;;3.55;1.70;;;1.50;99.90;;;;;;5114488;28;20635;-51
2023/02/26 01:03:52;;;;;;;3.55;1.45;;;1.70;99.90;;;;;;5113985;28;20217;-49
2023/02/26 01:06:21;;;;;;;2.13;1.20;;;1.80;99.90;;;;;;5114720;28;20194;-50
2023/02/26 01:08:54;;;;;;;2.22;0.98;;;1.90;99.90;;;;;;5114270;28;20193;-50
2023/02/26 01:11:21;;;;;;;3.35;1.40;;;1.70;99.90;;;;;;5095939;28;20725;-51
2023/02/26 01:13:50;;;;;;;2.45;1.10;;;1.60;99.90;;;;;;5114158;28;20194;-50
2023/02/26 01:16:21;;;;;;;3.25;1.25;;;1.80;99.90;;;;;;5113761;28;20190;-50
2023/02/26 01:18:52;;;;;;;4.80;1.60;;;1.10;99.90;;;;;;5112234;28;20197;-51
2023/02/26 01:21:24;;;;;;;3.80;2.10;;;1.50;99.90;;;;;;5114171;28;20217;-51
2023/02/26 01:23:51;;;;;;;4.25;1.38;;;1.70;99.90;;;;;;5112745;28;20670;-51
2023/02/26 01:26:22;;;;;;;4.10;1.25;;;1.60;99.90;;;;;;5096022;28;20562;-51
2023/02/26 01:28:51;;;;;;;1.98;1.40;;;1.90;99.90;;;;;;5113508;28;20202;-50
2023/02/26 01:31:34;;;;;;;2.30;1.30;;;2.00;99.90;;;;;;5112623;28;20217;-50
2023/02/26 01:34:06;;;;;;;4.40;1.58;;;1.70;99.90;;;;;;5113749;28;20205;-51
2023/02/26 01:36:40;;;;;;;2.50;1.20;;;1.60;99.90;;;;;;5095364;28;20251;-51
2023/02/26 01:39:14;;;;;;;3.92;1.15;;;1.60;99.90;;;;;;5095209;28;20602;-51
2023/02/26 01:41:46;;;;;;;8.40;1.73;;;1.70;99.90;;;;;;5113653;28;20208;-51
2023/02/26 01:44:23;;;;;;;2.28;1.00;;;1.50;99.90;;;;;;5113677;28;20197;-52
2023/02/26 01:47:06;;;;;;;4.55;1.40;;;1.90;99.90;;;;;;5094237;28;20198;-51
2023/02/26 01:49:34;;;;;;;3.15;1.42;;;1.90;99.90;;;;;;5111662;28;20193;-50
2023/02/26 01:52:02;;;;;;;1.85;1.23;;;1.70;99.90;;;;;;5095210;28;20201;-50
2023/02/26 01:54:32;;;;;;;2.20;1.00;;;1.80;99.90;;;;;;5113535;28;20217;-50
2023/02/26 01:57:03;;;;;;;2.42;1.60;;;1.90;99.90;;;;;;5113583;28;20650;-50
2023/02/26 01:59:32;;;;;;;4.90;1.20;;;2.00;99.90;;;;;;5111229;28;20194;-51
2023/02/26 02:02:01;;;;;;;2.03;1.20;;;1.70;99.90;;;;;;5113195;28;20202;-50
2023/02/26 02:04:31;;;;;;;4.70;1.40;;;1.80;99.90;;;;;;5111988;28;20618;-51
2023/02/26 02:07:01;;;;;;;5.50;1.40;;;1.70;99.90;;;;;;5112286;28;20304;-50
2023/02/26 02:09:28;;;;;;;2.00;1.10;;;1.80;99.90;;;;;;5094642;28;20202;-50
2023/02/26 02:12:20;;;;;;;4.00;1.40;;;1.80;99.90;;;;;;5095031;28;20212;-50
2023/02/26 02:14:58;;;;;;;2.40;1.25;;;1.80;99.90;;;;;;5094802;28;20238;-51
2023/02/26 02:17:35;;;;;;;4.57;1.48;;;1.80;99.90;;;;;;5111604;28;20193;-50
2023/02/26 02:20:29;;;;;;;4.22;1.27;;;1.70;99.90;;;;;;5112531;28;20212;-50
2023/02/26 02:23:17;;;;;;;1.83;1.20;;;1.80;99.90;;;;;;5112798;28;20685;-49
2023/02/26 02:26:14;;;;;;;3.45;1.30;;;1.80;99.90;;;;;;5112958;28;20174;-51
2023/02/26 02:28:49;;;;;;;2.50;1.55;;;1.70;99.90;;;;;;5111110;28;20201;-52
2023/02/26 02:31:21;;;;;;;5.22;1.83;;;1.80;99.90;;;;;;5094413;28;20225;-51
2023/02/26 02:33:52;;;;;;;2.33;1.30;;;1.70;99.90;;;;;;5112627;28;20198;-50
2023/02/26 02:36:24;;;;;;;5.60;1.52;;;2.10;99.90;;;;;;5094294;28;20233;-53
2023/02/26 02:38:55;;;;;;;5.05;1.58;;;2.10;99.90;;;;;;5112484;28;20198;-51
2023/02/26 02:41:27;;;;;;;1.77;1.10;;;1.80;99.90;;;;;;5112684;28;20289;-51
2023/02/26 02:43:59;;;;;;;6.10;2.40;;;1.90;99.90;;;;;;5111475;28;20250;-51
2023/02/26 02:46:31;;;;;;;3.55;1.25;;;1.90;99.90;;;;;;5111242;28;20592;-51
2023/02/26 02:49:01;;;;;;;2.55;1.27;;;1.80;99.90;;;;;;5112008;28;20603;-50
2023/02/26 02:51:32;;;;;;;2.92;1.20;;;1.80;99.90;;;;;;5112659;28;20230;-51
2023/02/26 02:54:21;;;;;;;2.88;1.52;;;2.00;99.90;;;;;;5112777;28;20196;-50
2023/02/26 02:56:52;;;;;;;3.67;1.45;;;1.30;99.90;;;;;;5111452;28;20312;-51
2023/02/26 02:59:23;;;;;;;3.15;1.88;;;1.80;99.90;;;;;;5116217;28;20296;-51
2023/02/26 03:01:59;;;;;;;5.55;1.42;;;1.80;99.90;;;;;;5100643;28;20283;-50
2023/02/26 03:04:26;;;;;;;2.60;1.20;;;1.90;99.90;;;;;;5118016;28;20205;-50
2023/02/26 03:06:53;;;;;;;4.60;1.20;;;1.90;99.90;;;;;;5100881;28;20298;-50
2023/02/26 03:09:22;;;;;;;3.60;1.45;;;1.30;99.90;;;;;;5119001;28;20196;-50
2023/02/26 03:11:49;;;;;;;3.88;2.00;;;2.00;99.90;;;;;;5119178;28;20205;-51
2023/02/26 03:14:17;;;;;;;5.53;1.50;;;1.70;99.90;;;;;;5100729;28;20202;-51
2023/02/26 03:17:09;;;;;;;4.35;1.40;;;1.90;99.90;;;;;;5100469;28;20587;-51
2023/02/26 03:19:49;;;;;;;4.70;1.48;;;2.00;99.90;;;;;;5100589;28;20201;-50
2023/02/26 03:22:27;;;;;;;3.95;1.52;;;1.80;99.90;;;;;;5100777;28;20209;-51
2023/02/26 03:25:00;;;;;;;3.45;1.30;;;1.70;99.90;;;;;;5117905;28;20201;-50
2023/02/26 03:27:33;;;;;;;5.22;1.10;;;1.70;99.90;;;;;;5117893;28;20220;-51
2023/02/26 03:30:04;;;;;;;3.78;1.25;;;1.70;99.90;;;;;;5100497;28;20551;-51
2023/02/26 03:32:45;;;;;;;4.57;1.52;;;1.70;99.90;;;;;;5100547;28;20194;-51
2023/02/26 03:35:15;;;;;;;3.25;1.58;;;1.80;99.90;;;;;;5117735;28;20230;-50
2023/02/26 03:37:46;;;;;;;4.70;1.55;;;1.70;99.90;;;;;;5117595;28;20567;-50
2023/02/26 03:40:17;;;;;;;2.90;1.40;;;1.70;99.90;;;;;;5118519;28;20205;-51
2023/02/26 03:42:48;;;;;;;4.88;1.50;;;1.80;99.90;;;;;;5100578;28;20676;-50
2023/02/26 03:45:19;;;;;;;3.92;1.33;;;1.60;99.90;;;;;;5117483;28;20664;-51
2023/02/26 03:47:52;;;;;;;2.70;1.30;;;1.80;99.90;;;;;;5100414;28;20198;-50
2023/02/26 03:50:25;;;;;;;4.85;1.40;;;1.60;99.90;;;;;;5117142;28;20244;-50
2023/02/26 03:53:13;;;;;;;2.63;1.13;;;1.70;99.90;;;;;;5117716;28;20212;-51
2023/02/26 03:55:49;;;;;;;5.78;1.42;;;1.60;99.90;;;;;;5117585;28;20394;-51
2023/02/26 03:58:48;;;;;;;4.05;1.40;;;1.90;99.90;;;;;;5083714;28;20695;-51
2023/02/26 04:01:48;;;;;;;3.13;1.27;;;1.80;99.90;;;;;;5100296;28;20312;-51
2023/02/26 04:04:21;;;;;;;2.53;1.10;;;2.00;99.90;;;;;;5117610;28;20193;-50
2023/02/26 04:06:48;;;;;;;4.20;1.50;;;1.70;99.90;;;;;;5118909;28;20194;-51
2023/02/26 04:09:16;;;;;;;4.68;1.13;;;1.80;99.90;;;;;;5099878;28;20293;-49
2023/02/26 04:11:44;;;;;;;4.38;1.33;;;1.70;99.90;;;;;;5097191;28;20706;-50
2023/02/26 04:14:11;;;;;;;4.38;1.52;;;1.70;99.90;;;;;;5115907;28;20287;-50
2023/02/26 04:16:41;;;;;;;4.25;1.27;;;1.90;99.90;;;;;;5097511;28;20226;-49
2023/02/26 04:19:09;;;;;;;6.65;1.30;;;1.70;99.90;;;;;;5097564;28;20696;-50
2023/02/26 04:21:38;;;;;;;1.80;1.17;;;1.70;99.90;;;;;;5096859;28;20216;-50
2023/02/26 04:24:06;;;;;;;4.13;1.13;;;1.70;99.90;;;;;;5096989;28;20730;-50
2023/02/26 04:26:33;;;;;;;4.88;1.65;;;1.70;99.90;;;;;;5097055;28;20606;-50
2023/02/26 04:29:01;;;;;;;4.05;1.13;;;1.80;99.90;;;;;;5096403;28;20194;-49
2023/02/26 04:31:27;;;;;;;2.75;1.40;;;1.60;99.90;;;;;;5096435;28;20304;-50
2023/02/26 04:33:54;;;;;;;8.38;1.50;;;1.80;99.90;;;;;;5096959;28;20221;-50
2023/02/26 04:36:21;;;;;;;4.55;1.63;;;2.00;99.90;;;;;;5096602;28;20241;-50
2023/02/26 04:38:49;;;;;;;3.38;1.10;;;1.70;99.90;;;;;;5096681;28;20322;-51
2023/02/26 04:41:16;;;;;;;3.55;1.60;;;1.90;99.90;;;;;;5096782;28;20218;-51
2023/02/26 04:43:44;;;;;;;8.23;1.20;;;1.20;99.90;;;;;;5096445;28;20274;-52
2023/02/26 04:46:22;;;;;;;5.22;1.50;;;1.70;99.90;;;;;;5096316;28;20217;-52
2023/02/26 04:48:49;;;;;;;2.90;1.42;;;1.90;99.90;;;;;;5114256;28;20194;-50
2023/02/26 04:51:16;;;;;;;4.63;1.33;;;1.70;99.90;;;;;;5096647;28;20308;-50
2023/02/26 04:53:44;;;;;;;4.03;1.55;;;1.70;99.90;;;;;;5096442;28;20558;-50
2023/02/26 04:56:12;;;;;;;3.47;1.67;;;1.90;99.90;;;;;;5100662;28;20213;-49
2023/02/26 04:58:39;;;;;;;1.90;1.15;;;1.90;99.90;;;;;;5119536;28;20197;-50
2023/02/26 05:01:12;;;;;;;4.05;1.63;;;2.10;99.90;;;;;;5100714;28;20218;-50
2023/02/26 05:03:39;;;;;;;6.32;1.40;;;1.80;99.90;;;;;;5101007;28;20209;-50
2023/02/26 05:06:06;;;;;;;3.95;1.27;;;1.80;99.90;;;;;;5101763;28;20213;-50
2023/02/26 05:08:33;;;;;;;1.83;0.90;;;1.80;99.90;;;;;;5099477;28;20198;-50
2023/02/26 05:10:59;;;;;;;3.80;1.35;;;1.70;99.90;;;;;;5096712;28;20578;-50
2023/02/26 05:13:28;;;;;;;1.98;1.10;;;1.90;99.90;;;;;;5099343;28;20224;-50
2023/02/26 05:15:56;;;;;;;2.67;1.60;;;1.80;99.90;;;;;;5097026;28;20267;-50
2023/02/26 05:18:23;;;;;;;3.47;1.50;;;2.00;99.90;;;;;;5095669;28;20298;-50
2023/02/26 05:20:52;;;;;;;3.40;0.95;;;1.90;99.90;;;;;;5095841;28;20316;-50
2023/02/26 05:23:19;;;;;;;5.63;1.33;;;2.10;99.90;;;;;;5112786;28;20198;-50
2023/02/26 05:25:46;;;;;;;3.63;1.50;;;2.20;99.90;;;;;;5095759;28;20194;-50
2023/02/26 05:28:14;;;;;;;5.40;1.60;;;2.10;99.90;;;;;;5095473;28;20202;-51
2023/02/26 05:30:43;;;;;;;3.05;1.33;;;1.30;99.90;;;;;;5095587;28;20656;-51
2023/02/26 05:33:09;;;;;;;5.78;1.45;;;1.90;99.90;;;;;;5112620;28;20193;-50
2023/02/26 05:35:36;;;;;;;3.42;1.20;;;1.90;99.90;;;;;;5113709;28;20217;-51
2023/02/26 05:38:03;;;;;;;2.20;1.00;;;2.00;99.90;;;;;;5113871;28;20560;-51
2023/02/26 05:40:29;;;;;;;7.40;1.65;;;2.00;99.90;;;;;;5113533;28;20224;-50
2023/02/26 05:42:56;;;;;;;1.63;1.10;;;1.40;99.90;;;;;;5113379;28;20194;-51
2023/02/26 05:45:22;;;;;;;3.35;1.58;;;1.80;99.90;;;;;;5113536;28;20654;-51
2023/02/26 05:47:50;;;;;;;6.18;2.10;;;1.90;99.90;;;;;;5113509;28;20663;-51
2023/02/26 05:50:17;;;;;;;2.55;1.20;;;1.80;99.90;;;;;;5112981;28;20213;-51
2023/02/26 05:52:44;;;;;;;8.65;1.25;;;2.00;99.90;;;;;;5113524;28;20658;-50
2023/02/26 05:55:12;;;;;;;4.38;1.45;;;1.90;99.90;;;;;;5113612;28;20566;-51
2023/02/26 05:57:38;;;;;;;2.58;1.40;;;2.00;99.90;;;;;;5113117;28;20221;-51
2023/02/26 06:00:07;;;;;;;5.68;1.60;;;1.80;99.90;;;;;;5112866;28;20220;-51
2023/02/26 06:02:39;;;;;;;2.47;1.48;;;1.90;99.90;;;;;;5113433;28;20206;-51
2023/02/26 06:05:08;;;;;;;2.65;1.25;;;2.10;99.90;;;;;;5113066;28;20201;-50
2023/02/26 06:07:35;;;;;;;1.70;1.20;;;2.00;99.90;;;;;;5113125;28;20197;-51
2023/02/26 06:10:02;;;;;;;7.00;1.67;;;2.10;99.90;;;;;;5112692;28;20563;-51
2023/02/26 06:12:29;;;;;;;1.95;1.23;;;2.10;99.90;;;;;;5112998;28;20267;-50
2023/02/26 06:14:56;;;;;;;2.75;1.10;;;1.90;99.90;;;;;;5094627;28;20217;-50
2023/02/26 06:17:22;;;;;;;3.10;1.10;;;2.00;99.90;;;;;;5112833;28;20229;-50
2023/02/26 06:19:49;;;;;;;7.20;1.20;;;1.90;99.90;;;;;;5112594;28;20221;-49
2023/02/26 06:22:17;;;;;;;2.20;1.10;;;2.00;99.90;;;;;;5112852;28;20209;-50
2023/02/26 06:24:44;;;;;;;2.40;1.02;;;1.90;99.90;;;;;;5112886;28;20233;-50
2023/02/26 06:27:10;;;;;;;1.92;1.02;;;2.00;99.90;;;;;;5113004;28;20197;-50
2023/02/26 06:29:38;;;;;;;3.58;1.40;;;2.10;99.90;;;;;;5113253;28;20189;-50
2023/02/26 06:32:05;;;;;;;3.30;1.38;;;2.10;99.90;;;;;;5113399;28;20194;-50
2023/02/26 06:34:32;;;;;;;3.72;1.45;;;2.00;99.90;;;;;;5112798;28;20251;-50
2023/02/26 06:36:59;;;;;;;3.05;1.10;;;2.10;99.90;;;;;;5112738;28;20217;-51
2023/02/26 06:39:27;;;;;;;3.33;1.15;;;2.30;99.90;;;;;;5112886;28;20201;-51
2023/02/26 06:41:53;;;;;;;3.80;1.20;;;2.00;99.90;;;;;;5113146;28;20648;-50
2023/02/26 06:44:20;;;;;;;3.90;1.45;;;2.00;99.90;;;;;;5113101;28;20198;-51
2023/02/26 06:46:47;;;;;;;2.25;1.10;;;2.10;99.90;;;;;;5113183;28;20186;-50
2023/02/26 06:49:13;;;;;;;2.45;0.90;;;2.00;99.90;;;;;;5112813;28;20193;-51
2023/02/26 06:51:40;;;;;;;2.45;1.25;;;2.00;99.90;;;;;;5112867;28;20217;-52
2023/02/26 06:54:07;;;;;;;3.75;1.33;;;1.90;99.90;;;;;;5113058;28;20206;-49
2023/02/26 06:56:35;;;;;;;3.72;1.58;;;2.50;99.90;;;;;;5112362;28;20222;-50
2023/02/26 06:59:02;;;;;;;3.95;1.25;;;2.30;99.90;;;;;;5112045;28;20194;-50
2023/02/26 07:01:30;;;;;;;2.03;1.40;;;2.50;99.90;;;;;;5112444;28;20360;-49
2023/02/26 07:03:57;;;;;;;3.95;1.33;;;2.20;99.90;;;;;;5112333;28;20550;-51
2023/02/26 07:06:23;;;;;;;3.13;1.20;;;2.40;99.90;;;;;;5112429;28;20186;-50
2023/02/26 07:08:50;;;;;;;2.28;1.05;;;2.20;99.90;;;;;;5111977;28;20190;-50
2023/02/26 07:11:17;;;;;;;4.38;1.52;;;2.50;99.90;;;;;;5112367;28;20298;-50
2023/02/26 07:13:45;;;;;;;1.50;1.10;;;2.30;99.90;;;;;;5112259;28;20194;-51
2023/02/26 07:16:11;;;;;;;2.28;1.13;;;2.40;99.90;;;;;;5111928;28;20221;-49
2023/02/26 07:18:38;;;;;;;4.82;1.40;;;2.40;99.90;;;;;;5111816;28;20204;-50
2023/02/26 07:21:06;;;;;;;1.95;1.20;;;2.00;99.90;;;;;;5111948;28;20218;-50
2023/02/26 07:23:33;;;;;;;6.07;1.35;;;2.40;99.90;;;;;;5112194;28;20190;-51
2023/02/26 07:26:01;;;;;;;9.00;1.45;;;2.10;99.90;;;;;;5112082;28;20190;-51
2023/02/26 07:28:27;;;;;;;1.95;1.23;;;2.10;99.90;;;;;;5111958;28;20186;-50
2023/02/26 07:30:56;;;;;;;2.42;1.42;;;1.90;99.90;;;;;;5112008;28;20301;-50
2023/02/26 07:33:23;;;;;;;4.10;1.95;;;2.20;99.90;;;;;;5112500;28;20284;-51
2023/02/26 07:35:50;;;;;;;2.80;1.45;;;1.90;99.90;;;;;;5112363;28;20233;-51
2023/02/26 07:38:17;;;;;;;6.55;1.65;;;2.10;99.90;;;;;;5111605;28;20217;-51
2023/02/26 07:40:44;;;;;;;2.90;1.52;;;1.90;99.90;;;;;;5111919;28;20713;-50
2023/02/26 07:43:10;;;;;;;4.05;1.42;;;2.00;99.90;;;;;;5111762;28;20198;-51
2023/02/26 07:45:37;;;;;;;6.55;1.85;;;1.90;99.90;;;;;;5113621;28;20646;-51
2023/02/26 07:48:05;;;;;;;5.32;1.35;;;2.50;99.90;;;;;;5096996;28;20221;-50
2023/02/26 07:50:32;;;;;;;4.55;1.50;;;2.10;99.90;;;;;;5115496;28;20236;-51
2023/02/26 07:52:59;;;;;;;3.85;1.42;;;1.50;99.90;;;;;;5114330;28;20636;-50
2023/02/26 07:55:26;;;;;;;4.50;1.23;;;2.30;99.90;;;;;;5115479;28;20198;-51
2023/02/26 07:57:53;;;;;;;3.63;1.30;;;2.10;99.90;;;;;;5115382;28;20300;-51
2023/02/26 08:00:20;;;;;;;1.80;1.13;;;1.70;99.90;;;;;;5115101;28;20217;-51
2023/02/26 08:02:47;;;;;;;2.85;1.10;;;2.10;99.90;;;;;;5115424;28;20208;-50
2023/02/26 08:05:15;;;;;;;4.80;1.63;;;2.00;99.90;;;;;;5115306;28;20242;-51
2023/02/26 08:07:42;;;;;;;3.58;1.27;;;2.10;99.90;;;;;;5115263;28;20190;-51
2023/02/26 08:10:10;;;;;;;4.72;1.85;;;2.40;99.90;;;;;;5114964;28;20229;-51
2023/02/26 08:12:37;;;;;;;4.20;1.40;;;2.00;99.90;;;;;;5115253;28;20290;-51
2023/02/26 08:15:06;;;;;;;6.18;1.20;;;2.00;99.90;;;;;;5115153;28;20217;-51
2023/02/26 08:17:33;;;;;;;3.35;1.38;;;2.30;99.90;;;;;;5114651;28;20210;-51
2023/02/26 08:20:00;;;;;;;7.75;1.55;;;2.00;99.90;;;;;;5114621;28;20225;-51
2023/02/26 08:22:27;;;;;;;2.78;1.30;;;2.00;99.90;;;;;;5115040;28;20670;-50
2023/02/26 08:24:54;;;;;;;2.30;1.10;;;2.10;99.90;;;;;;5114857;28;20190;-50
2023/02/26 08:27:21;;;;;;;2.72;1.60;;;2.30;99.90;;;;;;5096644;28;20289;-50
2023/02/26 08:29:49;;;;;;;3.28;1.30;;;1.60;99.90;;;;;;5114495;28;20297;-51
2023/02/26 08:32:17;;;;;;;6.05;1.20;;;2.10;99.90;;;;;;5115088;28;20220;-51
2023/02/26 08:34:43;;;;;;;4.38;1.67;;;2.10;99.90;;;;;;5114930;28;20206;-51
2023/02/26 08:37:10;;;;;;;2.10;1.25;;;2.80;99.90;;;;;;5114714;28;20712;-50
2023/02/26 08:39:38;;;;;;;5.55;1.50;;;2.30;99.90;;;;;;5114267;28;20719;-51
2023/02/26 08:42:06;;;;;;;2.65;1.25;;;2.10;99.90;;;;;;5114687;28;20674;-51
2023/02/26 08:44:39;;;;;;;7.88;1.63;;;2.40;99.90;;;;;;5114753;28;20285;-50
2023/02/26 08:47:18;;;;;;;2.50;1.27;;;2.40;99.90;;;;;;5114611;28;20661;-51
2023/02/26 08:49:44;;;;;;;3.25;1.20;;;2.40;99.90;;;;;;5112964;28;20483;-50
2023/02/26 08:52:11;;;;;;;7.82;1.95;;;2.40;99.90;;;;;;5114865;28;20213;-50
2023/02/26 08:54:39;;;;;;;4.93;1.67;;;2.40;99.90;;;;;;5114370;28;20194;-51
2023/02/26 08:57:06;;;;;;;3.65;1.20;;;2.10;99.90;;;;;;5113635;28;20221;-50
2023/02/26 08:59:32;;;;;;;4.10;2.08;;;2.70;99.90;;;;;;5113806;28;20194;-52
2023/02/26 09:01:59;;;;;;;1.80;1.20;;;2.70;99.90;;;;;;5114356;28;20603;-51
2023/02/26 09:04:27;;;;;;;2.40;1.05;;;2.50;99.90;;;;;;5114182;28;20204;-51
2023/02/26 09:06:54;;;;;;;2.53;1.77;;;2.20;99.90;;;;;;5113968;28;20197;-51
2023/02/26 09:09:21;;;;;;;1.55;1.08;;;2.20;99.90;;;;;;5113729;28;20198;-51
2023/02/26 09:11:49;;;;;;;7.53;1.30;;;2.70;99.90;;;;;;5114115;28;20669;-51
2023/02/26 09:14:15;;;;;;;2.58;1.60;;;2.00;99.90;;;;;;5113934;28;20198;-51
2023/02/26 09:16:43;;;;;;;6.35;1.48;;;2.90;99.90;;;;;;5113647;28;20201;-50
2023/02/26 09:19:18;;;;;;;3.13;1.20;;;2.70;99.90;;;;;;5095434;28;20213;-50
2023/02/26 09:21:54;;;;;;;3.97;1.70;;;2.40;99.90;;;;;;5113917;28;20206;-50
2023/02/26 09:24:21;;;;;;;3.30;1.40;;;2.50;99.90;;;;;;5095838;28;20208;-51
2023/02/26 09:26:49;;;;;;;2.72;1.10;;;2.80;99.90;;;;;;5113688;28;20218;-51
2023/02/26 09:29:16;;;;;;;3.83;1.35;;;2.80;99.90;;;;;;5113446;28;20687;-51
2023/02/26 09:31:42;;;;;;;2.42;1.45;;;2.70;99.90;;;;;;5113648;28;20218;-51
2023/02/26 09:34:09;;;;;;;3.70;1.60;;;2.80;99.90;;;;;;5113941;28;20212;-50
2023/02/26 09:36:36;;;;;;;2.08;0.95;;;2.90;99.90;;;;;;5113648;28;20201;-50
2023/02/26 09:39:03;;;;;;;7.68;1.40;;;2.80;99.90;;;;;;5113253;28;20272;-50
2023/02/26 09:41:33;;;;;;;6.03;1.65;;;3.10;99.90;;;;;;5113665;28;20221;-50
2023/02/26 09:44:10;;;;;;;2.38;1.05;;;2.80;99.90;;;;;;5113505;28;20194;-50
2023/02/26 09:46:45;;;;;;;2.45;1.10;;;2.90;99.90;;;;;;5112835;28;20198;-51
2023/02/26 09:49:32;;;;;;;2.67;1.23;;;3.10;99.90;;;;;;5112938;28;20243;-51
2023/02/26 09:52:05;;;;;;;1.80;1.05;;;3.00;99.90;;;;;;5113292;28;20376;-51
2023/02/26 09:54:37;;;;;;;3.53;1.08;;;3.10;99.90;;;;;;5113315;28;20651;-51
2023/02/26 09:57:06;;;;;;;2.00;1.10;;;2.50;99.90;;;;;;5113134;28;20205;-51
2023/02/26 09:59:34;;;;;;;1.83;0.70;;;3.00;99.90;;;;;;5112917;28;20262;-50
2023/02/26 10:02:12;;;;;;;4.63;1.90;;;3.10;99.90;;;;;;5113178;28;20198;-51
2023/02/26 10:05:00;;;;;;;2.92;1.30;;;3.20;99.90;;;;;;5111516;28;20283;-51
2023/02/26 10:07:37;;;;;;;3.40;1.25;;;3.20;99.90;;;;;;5112410;28;20194;-51
2023/02/26 10:10:15;;;;;;;4.47;1.50;;;3.20;99.90;;;;;;5112420;28;20706;-51
2023/02/26 10:12:44;;;;;;;5.47;1.40;;;3.30;99.90;;;;;;5112844;28;20208;-52
2023/02/26 10:15:16;;;;;;;4.57;1.23;;;3.30;99.90;;;;;;5113061;28;20198;-52
2023/02/26 10:18:00;;;;;;;4.55;2.80;;;3.30;99.90;;;;;;5112684;28;20843;-51
2023/02/26 10:20:31;;;;;;;14.05;2.45;;;3.50;99.90;;;;;;5112453;28;20216;-52
2023/02/26 10:23:04;;;;;;;2.83;1.10;;;3.40;99.90;;;;;;5112903;28;20654;-52
2023/02/26 10:25:35;;;;;;;3.13;1.58;;;3.40;99.90;;;;;;5112733;28;20201;-51
2023/02/26 10:28:15;;;;;;;2.50;1.40;;;3.60;99.90;;;;;;5112525;28;20197;-51
2023/02/26 10:30:49;;;;;;;4.38;1.90;;;3.80;99.90;;;;;;5112321;28;20697;-50
2023/02/26 10:33:22;;;;;;;2.55;1.27;;;3.60;99.90;;;;;;5112798;28;20663;-50
2023/02/26 10:35:53;;;;;;;3.30;1.20;;;3.90;99.60;;;;;;5112630;28;20194;-51
2023/02/26 10:38:24;;;;;;;2.90;1.15;;;3.70;98.80;;;;;;5112167;28;20221;-52
2023/02/26 10:40:56;;;;;;;2.90;1.30;;;3.80;98.80;;;;;;5113073;28;20549;-52
2023/02/26 10:43:28;;;;;;;2.05;1.55;;;3.40;98.50;;;;;;5112367;28;20307;-50
2023/02/26 10:46:08;;;;;;;2.70;1.40;;;3.60;98.20;;;;;;5113014;28;20197;-52
2023/02/26 10:48:53;;;;;;;2.20;0.98;;;3.80;97.70;;;;;;5115129;28;20193;-51
2023/02/26 10:51:24;;;;;;;3.75;1.20;;;3.60;96.80;;;;;;5117170;28;20222;-50
2023/02/26 10:53:54;;;;;;;2.17;1.15;;;3.70;96.50;;;;;;5116712;28;20190;-51
2023/02/26 10:56:25;;;;;;;3.72;1.08;;;3.80;96.50;;;;;;5117447;28;20197;-51
2023/02/26 10:58:53;;;;;;;2.55;0.82;;;3.90;96.40;;;;;;5112760;28;20225;-52
2023/02/26 11:01:24;;;;;;;3.97;0.93;;;3.80;96.00;;;;;;5112205;28;20217;-51
2023/02/26 11:03:55;;;;;;;3.90;1.35;;;4.30;95.90;;;;;;5111804;28;20193;-51
2023/02/26 11:06:28;;;;;;;3.22;1.25;;;3.90;95.50;;;;;;5112406;28;20195;-52
2023/02/26 11:08:57;;;;;;;4.47;1.25;;;4.20;95.70;;;;;;5112033;28;20217;-52
2023/02/26 11:11:40;;;;;;;3.70;1.10;;;3.40;95.30;;;;;;5133484;22;20229;-48
2023/02/26 11:14:08;;;;;;;2.65;1.25;;;4.00;94.50;;;;;;5111685;28;20189;-48
2023/02/26 11:16:45;;;;;;;2.88;1.08;;;3.90;94.80;;;;;;5111428;28;20216;-49
2023/02/26 11:19:14;;;;;;;3.65;1.00;;;3.90;93.50;;;;;;5112036;28;20555;-48
2023/02/26 11:21:44;;;;;;;4.00;1.15;;;4.10;93.40;;;;;;5115556;28;20201;-47
2023/02/26 11:24:16;;;;;;;2.33;1.05;;;4.00;93.40;;;;;;5114025;28;20305;-48
2023/02/26 11:26:47;;;;;;;2.95;1.38;;;4.20;93.10;;;;;;5115642;28;20547;-48
2023/02/26 11:29:17;;;;;;;2.20;0.95;;;4.10;93.60;;;;;;5115219;28;20197;-48
2023/02/26 11:31:48;;;;;;;2.08;0.93;;;4.50;93.30;;;;;;5097164;28;20627;-49
2023/02/26 11:41:50;;;;;;;2.05;1.08;;;4.40;93.10;;;;;;5116164;28;20188;-48
2023/02/26 11:44:21;;;;;;;2.88;1.15;;;4.50;93.90;;;;;;5115952;28;20194;-50
2023/02/26 11:46:54;;;;;;;2.55;1.10;;;4.60;93.40;;;;;;5115549;28;20233;-49
2023/02/26 11:49:23;;;;;;;5.45;1.42;;;4.70;93.70;;;;;;5114955;28;20676;-48
2023/02/26 11:52:05;;;;;;;2.97;1.10;;;5.00;93.30;;;;;;5115119;28;20701;-48
2023/02/26 11:54:35;;;;;;;2.45;1.08;;;4.80;93.70;;;;;;5115077;28;20202;-51
2023/02/26 11:57:06;;;;;;;3.60;1.08;;;4.70;92.80;;;;;;5114872;28;20550;-48
2023/02/26 11:59:34;;;;;;;3.17;1.10;;;4.90;92.60;;;;;;5114533;28;20263;-49
2023/02/26 12:02:14;;;;;;;2.08;1.05;;;4.90;93.20;;;;;;5115120;28;20705;-48
2023/02/26 12:04:43;;;;;;;3.20;1.30;;;4.80;92.70;;;;;;5114813;28;20206;-48
2023/02/26 12:07:14;;;;;;;6.43;1.25;;;5.00;93.30;;;;;;5114880;28;20194;-47
2023/02/26 12:09:41;;;;;;;3.92;1.38;;;5.10;93.20;;;;;;5115046;28;20204;-48
2023/02/26 12:12:23;;;;;;;3.53;1.10;;;5.00;92.60;;;;;;5114882;28;20222;-50
2023/02/26 12:15:05;;;;;;;3.15;1.10;;;5.10;92.90;;;;;;5113400;28;20247;-49
2023/02/26 12:17:54;;;;;;;2.88;1.42;;;5.10;92.50;;;;;;5114421;28;20226;-50
2023/02/26 12:20:26;;;;;;;2.75;1.25;;;5.10;92.90;;;;;;5114101;28;20224;-50
2023/02/26 12:23:12;;;;;;;2.60;1.48;;;5.10;92.40;;;;;;5114366;28;20200;-49
2023/02/26 12:25:50;;;;;;;2.90;1.23;;;4.90;92.80;;;;;;5115037;28;20233;-48
2023/02/26 12:28:36;;;;;;;3.17;1.13;;;5.10;92.90;;;;;;5113955;28;20195;-49
2023/02/26 12:31:39;;;;;;;1.60;0.90;;;5.00;92.10;;;;;;5113471;28;20317;-49
2023/02/26 12:34:21;;;;;;;2.03;1.10;;;4.90;90.30;;;;;;5114326;28;20236;-48
2023/02/26 12:37:04;;;;;;;1.90;1.10;;;4.80;90.50;;;;;;5114263;28;20190;-50
2023/02/26 12:39:42;;;;;;;3.85;1.27;;;5.10;90.40;;;;;;5113542;28;20225;-48
2023/02/26 12:42:18;;;;;;;1.30;0.80;;;5.10;89.30;;;;;;5114247;28;20684;-49
2023/02/26 12:45:05;;;;;;;2.67;1.20;;;4.80;89.20;;;;;;5112885;28;20198;-48
2023/02/26 12:47:45;;;;;;;3.47;0.97;;;5.20;89.30;;;;;;5113876;28;20436;-48
2023/02/26 12:50:27;;;;;;;2.65;1.30;;;5.10;89.00;;;;;;5113635;28;20509;-50
2023/02/26 12:53:19;;;;;;;3.10;1.30;;;5.50;90.00;;;;;;5114027;28;20419;-47
2023/02/26 12:56:00;;;;;;;2.33;1.03;;;5.10;88.80;;;;;;5112649;28;20285;-48
2023/02/26 12:58:54;;;;;;;1.95;1.13;;;4.70;88.60;;;;;;5113486;28;20470;-49
2023/02/26 13:01:53;;;;;;;3.13;1.30;;;4.70;89.50;;;;;;5113913;28;20395;-48
2023/02/26 13:05:04;;;;;;;8.45;1.38;;;4.70;89.60;;;;;;5113877;28;20273;-47
2023/02/26 13:07:49;;;;;;;3.40;1.98;;;5.00;89.00;;;;;;5074311;28;20215;-48
2023/02/26 13:10:26;;;;;;;4.00;1.40;;;5.00;89.80;;;;;;5111906;28;20282;-49
2023/02/26 13:13:02;;;;;;;1.70;1.20;;;4.70;89.50;;;;;;5113610;28;20190;-49
2023/02/26 13:15:51;;;;;;;2.50;1.20;;;5.10;90.20;;;;;;5113629;28;20571;-48
2023/02/26 13:18:25;;;;;;;5.20;2.10;;;5.00;90.20;;;;;;5112495;28;20220;-46
2023/02/26 13:20:59;;;;;;;3.05;1.10;;;4.50;90.10;;;;;;5112230;28;20231;-49
2023/02/26 13:23:33;;;;;;;2.07;0.90;;;4.50;89.50;;;;;;5114161;28;20197;-48
2023/02/26 13:26:02;;;;;;;2.73;0.90;;;5.00;90.00;;;;;;5112095;28;20914;-48
2023/02/26 13:28:39;;;;;;;2.95;1.30;;;5.10;90.40;;;;;;5113374;28;20424;-47